Página principal
METAR-TAF:

METAR-TAF

Aeroportos :

Aeroporto de Berlim-Tegel

Berlin, Alemanha

latitude: 52-34N, longitude: 013-19E, altura: 37 m

Observação actual do tempo

O boletim foi feito há 14 minutos, às 21:20 UTC
Vento 4 kt de es-nordeste, variando entre nordeste e sudeste
Temperatura 6°C
Humidade 93%
Pressão 1016 hPa
Visibilidade: 4000 m
Nuvens fragmentadasa uma altura de 500 ft
neblina

METAR: EDDT 202120Z 07004KT 040V130 4000 BR BKN005 06/05 Q1016 TEMPO 2800 BR OVC003

Hora: 22:34 (21:34 UTC)

Previsão

O boletim foi feito há 4 horas e 34 minutos, às 17:00 UTC
Previsão válida de 20 às 18 UTC a 21 às 18 UTC
Vento 5 kt de es-nordeste
Visibilidade: 6000 m
Nuvens fragmentadasa uma altura de 500 ft
Temporariamente
de 20 às 18 UTC a 21 às 09 UTC
Visibilidade: 2500 m
Nuvens fragmentadasa uma altura de 300 ft
chuva fraca

TAF: EDDT 201700Z 2018/2118 07005KT 6000 BKN005 TEMPO 2018/2109 2500 -RA BKN003

Observações e previsões do tempo de mais de 4000 aeroportos (mensagens METAR e TAF).

As estações disponíveis são os pontos amarelos e vermelhos sobre o mapa.

Mova o rato sobre o mapa para ver o nome da estação.

Depois clique no ponto para visualizar as observações e previsões meteorológicas.

Para alterar o mapa : clique nos botões verdes com uma cruz preta para aumentar o zoom; no botão verde com uma pitada de zoom; ou nas setas verdes para mapas adjacentes.


METAR-TAF: